sensor_id;sensor_type;location;lat;lon;timestamp;pressure;altitude;pressure_sealevel;temperature;humidity
7668;BME280;3876;42.204;24.686;2023-01-25T00:01:48;100870.22;;;2.81;100.00
7668;BME280;3876;42.204;24.686;2023-01-25T00:04:15;100866.88;;;2.82;100.00
7668;BME280;3876;42.204;24.686;2023-01-25T00:06:42;100860.00;;;2.78;100.00
7668;BME280;3876;42.204;24.686;2023-01-25T00:09:09;100867.66;;;2.80;100.00
7668;BME280;3876;42.204;24.686;2023-01-25T00:11:36;100865.16;;;2.81;100.00
7668;BME280;3876;42.204;24.686;2023-01-25T00:14:03;100868.44;;;2.77;100.00
7668;BME280;3876;42.204;24.686;2023-01-25T00:16:30;100863.19;;;2.70;100.00
7668;BME280;3876;42.204;24.686;2023-01-25T00:18:58;100861.59;;;2.73;100.00
7668;BME280;3876;42.204;24.686;2023-01-25T00:21:25;100860.50;;;2.63;100.00
7668;BME280;3876;42.204;24.686;2023-01-25T00:23:52;100860.59;;;2.67;100.00
7668;BME280;3876;42.204;24.686;2023-01-25T00:26:19;100860.59;;;2.67;100.00
7668;BME280;3876;42.204;24.686;2023-01-25T00:28:48;100843.38;;;2.53;100.00
7668;BME280;3876;42.204;24.686;2023-01-25T00:31:20;100865.00;;;2.75;100.00
7668;BME280;3876;42.204;24.686;2023-01-25T00:33:49;100865.88;;;2.76;100.00
7668;BME280;3876;42.204;24.686;2023-01-25T00:36:32;100868.44;;;2.77;100.00
7668;BME280;3876;42.204;24.686;2023-01-25T00:38:59;100871.63;;;2.70;100.00
7668;BME280;3876;42.204;24.686;2023-01-25T00:41:26;100876.56;;;2.64;100.00
7668;BME280;3876;42.204;24.686;2023-01-25T00:43:53;100871.56;;;2.67;100.00
7668;BME280;3876;42.204;24.686;2023-01-25T00:46:20;100869.91;;;2.69;100.00
7668;BME280;3876;42.204;24.686;2023-01-25T00:48:47;100858.75;;;2.61;100.00
7668;BME280;3876;42.204;24.686;2023-01-25T00:51:14;100874.09;;;2.67;100.00
7668;BME280;3876;42.204;24.686;2023-01-25T00:53:42;100870.56;;;2.60;100.00
7668;BME280;3876;42.204;24.686;2023-01-25T00:56:09;100874.69;;;2.57;100.00
7668;BME280;3876;42.204;24.686;2023-01-25T00:58:36;100873.88;;;2.58;100.00
7668;BME280;3876;42.204;24.686;2023-01-25T01:01:03;100849.06;;;2.45;100.00
7668;BME280;3876;42.204;24.686;2023-01-25T01:03:30;100870.56;;;2.62;100.00
7668;BME280;3876;42.204;24.686;2023-01-25T01:06:04;100873.94;;;2.61;100.00
7668;BME280;3876;42.204;24.686;2023-01-25T01:08:33;100869.53;;;2.54;100.00
7668;BME280;3876;42.204;24.686;2023-01-25T01:11:04;100860.88;;;2.46;100.00
7668;BME280;3876;42.204;24.686;2023-01-25T01:13:31;100866.78;;;2.45;100.00
7668;BME280;3876;42.204;24.686;2023-01-25T01:16:00;100855.81;;;2.46;100.00
7668;BME280;3876;42.204;24.686;2023-01-25T01:18:28;100854.06;;;2.42;100.00
7668;BME280;3876;42.204;24.686;2023-01-25T01:20:55;100857.69;;;2.53;100.00
7668;BME280;3876;42.204;24.686;2023-01-25T01:23:21;100851.63;;;2.46;100.00
7668;BME280;3876;42.204;24.686;2023-01-25T01:25:48;100849.22;;;2.51;100.00
7668;BME280;3876;42.204;24.686;2023-01-25T01:28:16;100842.28;;;2.44;100.00
7668;BME280;3876;42.204;24.686;2023-01-25T01:30:43;100843.50;;;2.58;100.00
7668;BME280;3876;42.204;24.686;2023-01-25T01:33:10;100840.84;;;2.53;100.00
7668;BME280;3876;42.204;24.686;2023-01-25T01:35:37;100839.72;;;2.42;100.00
7668;BME280;3876;42.204;24.686;2023-01-25T01:38:03;100842.34;;;2.47;100.00
7668;BME280;3876;42.204;24.686;2023-01-25T01:40:30;100837.28;;;2.47;100.00
7668;BME280;3876;42.204;24.686;2023-01-25T01:42:58;100833.88;;;2.45;100.00
7668;BME280;3876;42.204;24.686;2023-01-25T01:45:49;100839.75;;;2.44;100.00
7668;BME280;3876;42.204;24.686;2023-01-25T01:48:20;100834.03;;;2.51;100.00
7668;BME280;3876;42.204;24.686;2023-01-25T01:50:49;100833.16;;;2.50;100.00
7668;BME280;3876;42.204;24.686;2023-01-25T01:53:18;100843.34;;;2.52;100.00
7668;BME280;3876;42.204;24.686;2023-01-25T01:55:46;100840.72;;;2.49;100.00
7668;BME280;3876;42.204;24.686;2023-01-25T01:58:13;100837.44;;;2.53;100.00
7668;BME280;3876;42.204;24.686;2023-01-25T02:00:40;100836.50;;;2.48;100.00
7668;BME280;3876;42.204;24.686;2023-01-25T02:03:10;100833.03;;;2.44;100.00
7668;BME280;3876;42.204;24.686;2023-01-25T02:05:42;100842.44;;;2.50;100.00
7668;BME280;3876;42.204;24.686;2023-01-25T02:08:13;100844.16;;;2.51;100.00
7668;BME280;3876;42.204;24.686;2023-01-25T02:10:41;100837.38;;;2.50;100.00
7668;BME280;3876;42.204;24.686;2023-01-25T02:13:09;100813.44;;;2.37;100.00
7668;BME280;3876;42.204;24.686;2023-01-25T02:15:40;100830.69;;;2.52;100.00
7668;BME280;3876;42.204;24.686;2023-01-25T02:18:09;100831.59;;;2.55;100.00
7668;BME280;3876;42.204;24.686;2023-01-25T02:20:38;100834.09;;;2.54;100.00
7668;BME280;3876;42.204;24.686;2023-01-25T02:23:10;100828.19;;;2.53;100.00
7668;BME280;3876;42.204;24.686;2023-01-25T02:25:40;100833.13;;;2.49;100.00
7668;BME280;3876;42.204;24.686;2023-01-25T02:28:10;100829.13;;;2.57;100.00
7668;BME280;3876;42.204;24.686;2023-01-25T02:30:40;100828.31;;;2.59;100.00
7668;BME280;3876;42.204;24.686;2023-01-25T02:33:08;100834.31;;;2.63;100.00
7668;BME280;3876;42.204;24.686;2023-01-25T02:35:41;100832.69;;;2.65;100.00
7668;BME280;3876;42.204;24.686;2023-01-25T02:38:09;100836.19;;;2.70;100.00
7668;BME280;3876;42.204;24.686;2023-01-25T02:40:44;100837.06;;;2.71;100.00
7668;BME280;3876;42.204;24.686;2023-01-25T02:43:14;100842.00;;;2.66;100.00
7668;BME280;3876;42.204;24.686;2023-01-25T02:45:43;100823.97;;;2.54;100.00
7668;BME280;3876;42.204;24.686;2023-01-25T02:48:11;100835.38;;;2.71;100.00
7668;BME280;3876;42.204;24.686;2023-01-25T02:50:38;100830.91;;;2.61;100.00
7668;BME280;3876;42.204;24.686;2023-01-25T02:53:04;100825.78;;;2.59;100.00
7668;BME280;3876;42.204;24.686;2023-01-25T02:55:31;100828.38;;;2.61;100.00
7668;BME280;3876;42.204;24.686;2023-01-25T02:57:59;100822.56;;;2.65;100.00
7668;BME280;3876;42.204;24.686;2023-01-25T03:00:26;100829.13;;;2.57;100.00
7668;BME280;3876;42.204;24.686;2023-01-25T03:02:53;100832.53;;;2.59;100.00
7668;BME280;3876;42.204;24.686;2023-01-25T03:05:20;100830.91;;;2.61;100.00
7668;BME280;3876;42.204;24.686;2023-01-25T03:07:47;100825.84;;;2.61;100.00
7668;BME280;3876;42.204;24.686;2023-01-25T03:10:14;100825.00;;;2.62;100.00
7668;BME280;3876;42.204;24.686;2023-01-25T03:12:41;100834.41;;;2.66;100.00
7668;BME280;3876;42.204;24.686;2023-01-25T03:15:09;100823.47;;;2.69;100.00
7668;BME280;3876;42.204;24.686;2023-01-25T03:17:36;100810.72;;;2.64;100.00
7668;BME280;3876;42.204;24.686;2023-01-25T03:20:03;100820.00;;;2.63;100.00
7668;BME280;3876;42.204;24.686;2023-01-25T03:22:30;100815.56;;;2.55;100.00
7668;BME280;3876;42.204;24.686;2023-01-25T03:24:57;100827.66;;;2.67;100.00
7668;BME280;3876;42.204;24.686;2023-01-25T03:27:24;100825.25;;;2.71;100.00
7668;BME280;3876;42.204;24.686;2023-01-25T03:29:50;100827.63;;;2.65;100.00
7668;BME280;3876;42.204;24.686;2023-01-25T03:32:19;100821.88;;;2.71;100.00
7668;BME280;3876;42.204;24.686;2023-01-25T03:34:45;100829.47;;;2.72;100.00
7668;BME280;3876;42.204;24.686;2023-01-25T03:37:12;100824.41;;;2.72;100.00
7668;BME280;3876;42.204;24.686;2023-01-25T03:39:39;100827.72;;;2.68;100.00
7668;BME280;3876;42.204;24.686;2023-01-25T03:42:06;100807.84;;;2.50;100.00
7668;BME280;3876;42.204;24.686;2023-01-25T03:44:32;100826.78;;;2.64;100.00
7668;BME280;3876;42.204;24.686;2023-01-25T03:46:59;100830.25;;;2.68;100.00
7668;BME280;3876;42.204;24.686;2023-01-25T03:49:28;100834.53;;;2.71;100.00
7668;BME280;3876;42.204;24.686;2023-01-25T03:51:54;100836.25;;;2.73;100.00
7668;BME280;3876;42.204;24.686;2023-01-25T03:54:22;100835.41;;;2.73;100.00
7668;BME280;3876;42.204;24.686;2023-01-25T03:56:49;100837.06;;;2.72;100.00
7668;BME280;3876;42.204;24.686;2023-01-25T03:59:16;100834.69;;;2.78;100.00
7668;BME280;3876;42.204;24.686;2023-01-25T04:01:43;100833.22;;;2.88;100.00
7668;BME280;3876;42.204;24.686;2023-01-25T04:04:09;100840.13;;;2.93;100.00
7668;BME280;3876;42.204;24.686;2023-01-25T04:06:38;100835.00;;;2.90;100.00
7668;BME280;3876;42.204;24.686;2023-01-25T04:09:05;100825.69;;;2.89;100.00
7668;BME280;3876;42.204;24.686;2023-01-25T04:11:31;100826.69;;;2.96;100.00
7668;BME280;3876;42.204;24.686;2023-01-25T04:13:58;100816.28;;;2.84;100.00
7668;BME280;3876;42.204;24.686;2023-01-25T04:16:25;100836.47;;;2.82;100.00
7668;BME280;3876;42.204;24.686;2023-01-25T04:18:54;100834.75;;;2.81;100.00
7668;BME280;3876;42.204;24.686;2023-01-25T04:21:21;100840.47;;;2.73;100.00
7668;BME280;3876;42.204;24.686;2023-01-25T04:23:49;100832.69;;;2.65;100.00
7668;BME280;3876;42.204;24.686;2023-01-25T04:26:16;100838.72;;;2.70;100.00
7668;BME280;3876;42.204;24.686;2023-01-25T04:28:43;100836.19;;;2.70;100.00
7668;BME280;3876;42.204;24.686;2023-01-25T04:31:10;100835.34;;;2.70;100.00
7668;BME280;3876;42.204;24.686;2023-01-25T04:33:36;100842.06;;;2.69;100.00
7668;BME280;3876;42.204;24.686;2023-01-25T04:36:04;100829.13;;;2.57;100.00
7668;BME280;3876;42.204;24.686;2023-01-25T04:38:31;100848.56;;;2.58;100.00
7668;BME280;3876;42.204;24.686;2023-01-25T04:40:59;100850.16;;;2.54;100.00
7668;BME280;3876;42.204;24.686;2023-01-25T04:43:28;100852.47;;;2.47;100.00
7668;BME280;3876;42.204;24.686;2023-01-25T04:45:55;100854.06;;;2.42;100.00
7668;BME280;3876;42.204;24.686;2023-01-25T04:48:21;100853.19;;;2.41;100.00
7668;BME280;3876;42.204;24.686;2023-01-25T04:50:48;100851.53;;;2.42;100.00
7668;BME280;3876;42.204;24.686;2023-01-25T04:53:15;100848.13;;;2.41;100.00
7668;BME280;3876;42.204;24.686;2023-01-25T04:55:44;100836.75;;;2.26;100.00
7668;BME280;3876;42.204;24.686;2023-01-25T04:58:13;100842.06;;;2.35;100.00
7668;BME280;3876;42.204;24.686;2023-01-25T05:00:40;100843.50;;;2.27;100.00
7668;BME280;3876;42.204;24.686;2023-01-25T05:03:06;100848.72;;;2.33;100.00
7668;BME280;3876;42.204;24.686;2023-01-25T05:05:33;100847.13;;;2.35;100.00
7668;BME280;3876;42.204;24.686;2023-01-25T05:08:00;100851.31;;;2.34;100.00
7668;BME280;3876;42.204;24.686;2023-01-25T05:10:27;100853.78;;;2.33;100.00
7668;BME280;3876;42.204;24.686;2023-01-25T05:12:53;100857.16;;;2.32;100.00
7668;BME280;3876;42.204;24.686;2023-01-25T05:15:22;100854.56;;;2.30;100.00
7668;BME280;3876;42.204;24.686;2023-01-25T05:17:48;100866.19;;;2.24;100.00
7668;BME280;3876;42.204;24.686;2023-01-25T05:20:15;100863.03;;;2.31;100.00
7668;BME280;3876;42.204;24.686;2023-01-25T05:22:42;100860.25;;;2.22;100.00
7668;BME280;3876;42.204;24.686;2023-01-25T05:25:09;100863.72;;;2.25;100.00
7668;BME280;3876;42.204;24.686;2023-01-25T05:27:56;100869.50;;;2.20;100.00
7668;BME280;3876;42.204;24.686;2023-01-25T05:30:23;100868.56;;;2.16;100.00
7668;BME280;3876;42.204;24.686;2023-01-25T05:32:50;100873.63;;;2.18;100.00
7668;BME280;3876;42.204;24.686;2023-01-25T05:35:16;100856.72;;;2.15;100.00
7668;BME280;3876;42.204;24.686;2023-01-25T05:37:43;100844.69;;;2.06;100.00
7668;BME280;3876;42.204;24.686;2023-01-25T05:40:11;100862.72;;;2.19;100.00
7668;BME280;3876;42.204;24.686;2023-01-25T05:42:38;100872.91;;;2.22;100.00
7668;BME280;3876;42.204;24.686;2023-01-25T05:45:06;100861.78;;;2.17;100.00
7668;BME280;3876;42.204;24.686;2023-01-25T05:47:34;100875.44;;;2.22;100.00
7668;BME280;3876;42.204;24.686;2023-01-25T05:50:01;100862.16;;;2.30;100.00
7668;BME280;3876;42.204;24.686;2023-01-25T05:52:28;100862.22;;;2.32;100.00
7668;BME280;3876;42.204;24.686;2023-01-25T05:54:55;100875.75;;;2.34;100.00
7668;BME280;3876;42.204;24.686;2023-01-25T05:57:21;100881.53;;;2.30;100.00
7668;BME280;3876;42.204;24.686;2023-01-25T05:59:48;100876.47;;;2.28;100.00
7668;BME280;3876;42.204;24.686;2023-01-25T06:02:15;100879.28;;;2.39;100.00
7668;BME280;3876;42.204;24.686;2023-01-25T06:04:43;100876.38;;;2.25;100.00
7668;BME280;3876;42.204;24.686;2023-01-25T06:07:10;100868.81;;;2.27;100.00
7668;BME280;3876;42.204;24.686;2023-01-25T06:09:37;100875.69;;;2.31;100.00
7668;BME280;3876;42.204;24.686;2023-01-25T06:12:04;100876.53;;;2.31;100.00
7668;BME280;3876;42.204;24.686;2023-01-25T06:14:31;100871.31;;;2.25;100.00
7668;BME280;3876;42.204;24.686;2023-01-25T06:16:57;100872.25;;;2.29;100.00
7668;BME280;3876;42.204;24.686;2023-01-25T06:19:24;100867.34;;;2.35;100.00
7668;BME280;3876;42.204;24.686;2023-01-25T06:21:52;100877.69;;;2.42;100.00
7668;BME280;3876;42.204;24.686;2023-01-25T06:24:19;100884.34;;;2.39;100.00
7668;BME280;3876;42.204;24.686;2023-01-25T06:26:46;100886.25;;;2.47;100.00
7668;BME280;3876;42.204;24.686;2023-01-25T06:29:13;100885.53;;;2.53;100.00
7668;BME280;3876;42.204;24.686;2023-01-25T06:31:39;100887.22;;;2.52;100.00
7668;BME280;3876;42.204;24.686;2023-01-25T06:34:06;100883.78;;;2.50;100.00
7668;BME280;3876;42.204;24.686;2023-01-25T06:36:34;100877.06;;;2.51;100.00
7668;BME280;3876;42.204;24.686;2023-01-25T06:39:02;100873.81;;;2.55;100.00
7668;BME280;3876;42.204;24.686;2023-01-25T06:41:29;100874.53;;;2.51;100.00
7668;BME280;3876;42.204;24.686;2023-01-25T06:43:56;100874.38;;;2.45;100.00
7668;BME280;3876;42.204;24.686;2023-01-25T06:46:23;100880.25;;;2.44;100.00
7668;BME280;3876;42.204;24.686;2023-01-25T06:48:50;100877.63;;;2.41;100.00
7668;BME280;3876;42.204;24.686;2023-01-25T06:51:16;100879.34;;;2.42;100.00
7668;BME280;3876;42.204;24.686;2023-01-25T06:53:44;100871.00;;;2.46;100.00
7668;BME280;3876;42.204;24.686;2023-01-25T06:56:14;100880.25;;;2.44;100.00
7668;BME280;3876;42.204;24.686;2023-01-25T06:58:42;100885.38;;;2.45;100.00
7668;BME280;3876;42.204;24.686;2023-01-25T07:01:13;100849.66;;;2.36;100.00
7668;BME280;3876;42.204;24.686;2023-01-25T07:03:40;100880.56;;;2.56;100.00
7668;BME280;3876;42.204;24.686;2023-01-25T07:06:09;100881.31;;;2.52;100.00
7668;BME280;3876;42.204;24.686;2023-01-25T07:08:36;100881.41;;;2.55;100.00
7668;BME280;3876;42.204;24.686;2023-01-25T07:11:05;100885.53;;;2.53;100.00
7668;BME280;3876;42.204;24.686;2023-01-25T07:13:35;100894.00;;;2.53;100.00
7668;BME280;3876;42.204;24.686;2023-01-25T07:16:04;100888.06;;;2.53;100.00
7668;BME280;3876;42.204;24.686;2023-01-25T07:18:31;100888.16;;;2.56;100.00
7668;BME280;3876;42.204;24.686;2023-01-25T07:21:02;100896.66;;;2.58;100.00
7668;BME280;3876;42.204;24.686;2023-01-25T07:23:29;100897.63;;;2.63;100.00
7668;BME280;3876;42.204;24.686;2023-01-25T07:25:57;100895.16;;;2.66;100.00
7668;BME280;3876;42.204;24.686;2023-01-25T07:28:24;100892.59;;;2.64;100.00
7668;BME280;3876;42.204;24.686;2023-01-25T07:30:53;100894.94;;;2.57;100.00
7668;BME280;3876;42.204;24.686;2023-01-25T07:33:19;100898.50;;;2.65;100.00
7668;BME280;3876;42.204;24.686;2023-01-25T07:35:46;100900.88;;;2.59;100.00
7668;BME280;3876;42.204;24.686;2023-01-25T07:38:15;100901.38;;;2.46;100.00
7668;BME280;3876;42.204;24.686;2023-01-25T07:40:42;100900.53;;;2.45;100.00
7668;BME280;3876;42.204;24.686;2023-01-25T07:43:09;100903.81;;;2.41;100.00
7668;BME280;3876;42.204;24.686;2023-01-25T07:45:35;100898.03;;;2.47;100.00
7668;BME280;3876;42.204;24.686;2023-01-25T07:48:07;100900.63;;;2.48;100.00
7668;BME280;3876;42.204;24.686;2023-01-25T07:50:35;100900.81;;;2.56;100.00
7668;BME280;3876;42.204;24.686;2023-01-25T07:53:02;100905.78;;;2.51;100.00
7668;BME280;3876;42.204;24.686;2023-01-25T07:55:29;100905.84;;;2.54;100.00
7668;BME280;3876;42.204;24.686;2023-01-25T07:57:57;100905.13;;;2.60;100.00
7668;BME280;3876;42.204;24.686;2023-01-25T08:00:25;100899.13;;;2.56;100.00
7668;BME280;3876;42.204;24.686;2023-01-25T08:02:52;100902.53;;;2.57;100.00
7668;BME280;3876;42.204;24.686;2023-01-25T08:05:20;100901.00;;;2.63;100.00
7668;BME280;3876;42.204;24.686;2023-01-25T08:07:47;100907.53;;;2.55;100.00
7668;BME280;3876;42.204;24.686;2023-01-25T08:10:14;100909.97;;;2.51;100.00
7668;BME280;3876;42.204;24.686;2023-01-25T08:12:43;100904.13;;;2.53;100.00
7668;BME280;3876;42.204;24.686;2023-01-25T08:15:11;100894.13;;;2.58;100.00
7668;BME280;3876;42.204;24.686;2023-01-25T08:17:38;100900.94;;;2.60;100.00
7668;BME280;3876;42.204;24.686;2023-01-25T08:20:06;100900.22;;;2.66;100.00
7668;BME280;3876;42.204;24.686;2023-01-25T08:22:34;100905.38;;;2.69;100.00
7668;BME280;3876;42.204;24.686;2023-01-25T08:25:01;100906.22;;;2.68;100.00
7668;BME280;3876;42.204;24.686;2023-01-25T08:27:28;100911.13;;;2.63;100.00
7668;BME280;3876;42.204;24.686;2023-01-25T08:29:55;100910.28;;;2.63;100.00
7668;BME280;3876;42.204;24.686;2023-01-25T08:32:22;100912.00;;;2.64;100.00
7668;BME280;3876;42.204;24.686;2023-01-25T08:34:48;100911.34;;;2.71;100.00
7668;BME280;3876;42.204;24.686;2023-01-25T08:37:15;100915.72;;;2.78;100.00
7668;BME280;3876;42.204;24.686;2023-01-25T08:39:43;100902.84;;;2.69;100.00
7668;BME280;3876;42.204;24.686;2023-01-25T08:42:10;100905.50;;;2.74;100.00
7668;BME280;3876;42.204;24.686;2023-01-25T08:44:37;100918.88;;;2.68;100.00
7668;BME280;3876;42.204;24.686;2023-01-25T08:47:04;100919.69;;;2.69;100.00
7668;BME280;3876;42.204;24.686;2023-01-25T08:49:30;100912.94;;;2.68;100.00
7668;BME280;3876;42.204;24.686;2023-01-25T08:51:59;100907.25;;;2.76;100.00
7668;BME280;3876;42.204;24.686;2023-01-25T08:54:25;100911.50;;;2.77;100.00
7668;BME280;3876;42.204;24.686;2023-01-25T08:56:54;100915.66;;;2.75;100.00
7668;BME280;3876;42.204;24.686;2023-01-25T08:59:21;100902.91;;;2.72;100.00
7668;BME280;3876;42.204;24.686;2023-01-25T09:01:47;100906.22;;;2.68;100.00
7668;BME280;3876;42.204;24.686;2023-01-25T09:04:14;100890.25;;;2.72;100.00
7668;BME280;3876;42.204;24.686;2023-01-25T09:06:41;100891.31;;;2.80;100.00
7668;BME280;3876;42.204;24.686;2023-01-25T09:09:08;100895.53;;;2.81;100.00
7668;BME280;3876;42.204;24.686;2023-01-25T09:11:35;100883.78;;;2.83;100.00
7668;BME280;3876;42.204;24.686;2023-01-25T09:14:04;100882.13;;;2.85;100.00
7668;BME280;3876;42.204;24.686;2023-01-25T09:16:31;100842.72;;;2.62;100.00
7668;BME280;3876;42.204;24.686;2023-01-25T09:19:00;100892.50;;;2.94;100.00
7668;BME280;3876;42.204;24.686;2023-01-25T09:21:28;100889.94;;;2.93;100.00
7668;BME280;3876;42.204;24.686;2023-01-25T09:23:55;100888.44;;;3.01;100.00
7668;BME280;3876;42.204;24.686;2023-01-25T09:26:22;100888.94;;;2.86;100.00
7668;BME280;3876;42.204;24.686;2023-01-25T09:28:51;100883.13;;;2.90;99.81
7668;BME280;3876;42.204;24.686;2023-01-25T09:31:19;100872.94;;;2.89;100.00
7668;BME280;3876;42.204;24.686;2023-01-25T09:33:47;100872.13;;;2.90;100.00
7668;BME280;3876;42.204;24.686;2023-01-25T09:36:15;100861.94;;;2.88;100.00
7668;BME280;3876;42.204;24.686;2023-01-25T09:38:42;100851.88;;;2.91;100.00
7668;BME280;3876;42.204;24.686;2023-01-25T09:41:31;100862.03;;;2.91;100.00
7668;BME280;3876;42.204;24.686;2023-01-25T09:44:13;100850.19;;;2.90;100.00
7668;BME280;3876;42.204;24.686;2023-01-25T09:46:48;100843.53;;;2.94;99.91
7668;BME280;3876;42.204;24.686;2023-01-25T09:49:30;100841.00;;;2.94;100.00
7668;BME280;3876;42.204;24.686;2023-01-25T09:52:15;100831.69;;;2.94;100.00
7668;BME280;3876;42.204;24.686;2023-01-25T09:54:49;100832.00;;;3.06;100.00
7668;BME280;3876;42.204;24.686;2023-01-25T09:57:17;100832.13;;;3.12;100.00
7668;BME280;3876;42.204;24.686;2023-01-25T09:59:48;100834.75;;;3.17;99.59
7668;BME280;3876;42.204;24.686;2023-01-25T10:02:30;100827.19;;;3.18;99.31
7668;BME280;3876;42.204;24.686;2023-01-25T10:05:06;100827.19;;;3.18;98.98
7668;BME280;3876;42.204;24.686;2023-01-25T10:07:49;100818.72;;;3.16;98.74
7668;BME280;3876;42.204;24.686;2023-01-25T10:10:20;100813.72;;;3.20;98.50
7668;BME280;3876;42.204;24.686;2023-01-25T10:12:48;100818.91;;;3.26;98.50
7668;BME280;3876;42.204;24.686;2023-01-25T10:15:19;100814.56;;;3.20;97.57
7668;BME280;3876;42.204;24.686;2023-01-25T10:17:53;100801.72;;;3.12;97.83
7668;BME280;3876;42.204;24.686;2023-01-25T10:20:29;100796.59;;;3.09;98.69
7668;BME280;3876;42.204;24.686;2023-01-25T10:23:22;100794.09;;;3.11;98.71
7668;BME280;3876;42.204;24.686;2023-01-25T10:25:56;100794.94;;;3.11;99.59
7668;BME280;3876;42.204;24.686;2023-01-25T10:28:33;100781.53;;;3.15;99.11
7668;BME280;3876;42.204;24.686;2023-01-25T10:31:07;100784.31;;;3.26;98.55
7668;BME280;3876;42.204;24.686;2023-01-25T10:33:39;100780.28;;;3.36;97.67
7668;BME280;3876;42.204;24.686;2023-01-25T10:36:12;100776.84;;;3.34;97.81
7668;BME280;3876;42.204;24.686;2023-01-25T10:38:41;100780.47;;;3.45;97.25
7668;BME280;3876;42.204;24.686;2023-01-25T10:41:12;100777.88;;;3.42;97.10
7668;BME280;3876;42.204;24.686;2023-01-25T10:43:42;100766.75;;;3.37;96.18
7668;BME280;3876;42.204;24.686;2023-01-25T10:46:17;100759.94;;;3.33;95.64
7668;BME280;3876;42.204;24.686;2023-01-25T10:48:46;100764.03;;;3.26;96.40
7668;BME280;3876;42.204;24.686;2023-01-25T10:51:28;100761.50;;;3.28;96.78
7668;BME280;3876;42.204;24.686;2023-01-25T10:53:58;100758.97;;;3.28;96.68
7668;BME280;3876;42.204;24.686;2023-01-25T10:56:27;100760.69;;;3.29;97.02
7668;BME280;3876;42.204;24.686;2023-01-25T10:59:06;100756.44;;;3.26;97.72
7668;BME280;3876;42.204;24.686;2023-01-25T11:01:35;100755.63;;;3.29;97.33
7668;BME280;3876;42.204;24.686;2023-01-25T11:04:21;100752.34;;;3.34;97.13
7668;BME280;3876;42.204;24.686;2023-01-25T11:06:49;100751.69;;;3.43;96.30
7668;BME280;3876;42.204;24.686;2023-01-25T11:09:52;100749.72;;;3.30;95.91
7668;BME280;3876;42.204;24.686;2023-01-25T11:12:20;100741.41;;;3.37;96.31
7668;BME280;3876;42.204;24.686;2023-01-25T11:14:48;100739.78;;;3.39;96.52
7668;BME280;3876;42.204;24.686;2023-01-25T11:17:23;100729.59;;;3.37;97.21
7668;BME280;3876;42.204;24.686;2023-01-25T11:20:10;100729.72;;;3.42;97.89
7668;BME280;3876;42.204;24.686;2023-01-25T11:22:48;100731.22;;;3.34;96.62
7668;BME280;3876;42.204;24.686;2023-01-25T11:25:33;100711.97;;;3.43;96.51
7668;BME280;3876;42.204;24.686;2023-01-25T11:28:17;100720.59;;;3.51;97.11
7668;BME280;3876;42.204;24.686;2023-01-25T11:30:45;100706.84;;;3.40;95.53
7668;BME280;3876;42.204;24.686;2023-01-25T11:33:14;100700.09;;;3.39;96.38
7668;BME280;3876;42.204;24.686;2023-01-25T11:35:57;100706.31;;;3.55;96.79
7668;BME280;3876;42.204;24.686;2023-01-25T11:38:28;100709.78;;;3.60;96.90
7668;BME280;3876;42.204;24.686;2023-01-25T11:41:03;100706.53;;;3.67;96.44
7668;BME280;3876;42.204;24.686;2023-01-25T11:43:53;100703.94;;;3.64;95.94
7668;BME280;3876;42.204;24.686;2023-01-25T11:46:33;100689.31;;;3.51;96.37
7668;BME280;3876;42.204;24.686;2023-01-25T11:49:15;100696.19;;;3.56;97.47
7668;BME280;3876;42.204;24.686;2023-01-25T11:51:49;100690.84;;;3.43;96.18
7668;BME280;3876;42.204;24.686;2023-01-25T11:54:37;100687.53;;;3.47;97.30
7668;BME280;3876;42.204;24.686;2023-01-25T11:57:22;100686.56;;;3.39;97.75
7668;BME280;3876;42.204;24.686;2023-01-25T12:00:16;100682.63;;;3.56;98.41
7668;BME280;3876;42.204;24.686;2023-01-25T12:03:06;100675.28;;;3.68;97.82
7668;BME280;3876;42.204;24.686;2023-01-25T12:05:51;100671.16;;;3.75;97.01
7668;BME280;3876;42.204;24.686;2023-01-25T12:08:33;100666.88;;;3.72;95.97
7668;BME280;3876;42.204;24.686;2023-01-25T12:11:09;100662.59;;;3.69;97.54
7668;BME280;3876;42.204;24.686;2023-01-25T12:13:46;100650.75;;;3.67;96.51
7668;BME280;3876;42.204;24.686;2023-01-25T12:16:38;100661.84;;;3.74;96.70
7668;BME280;3876;42.204;24.686;2023-01-25T12:19:26;100654.16;;;3.69;96.52
7668;BME280;3876;42.204;24.686;2023-01-25T12:22:18;100642.38;;;3.71;96.59
7668;BME280;3876;42.204;24.686;2023-01-25T12:24:53;100643.84;;;3.60;95.30
7668;BME280;3876;42.204;24.686;2023-01-25T12:27:32;100645.63;;;3.64;95.32
7668;BME280;3876;42.204;24.686;2023-01-25T12:30:09;100640.53;;;3.64;94.91
7668;BME280;3876;42.204;24.686;2023-01-25T12:32:39;100643.94;;;3.66;95.56
7668;BME280;3876;42.204;24.686;2023-01-25T12:35:22;100642.25;;;3.65;95.86
7668;BME280;3876;42.204;24.686;2023-01-25T12:37:56;100646.63;;;3.74;96.45
7668;BME280;3876;42.204;24.686;2023-01-25T12:40:33;100637.34;;;3.74;96.30
7668;BME280;3876;42.204;24.686;2023-01-25T12:43:00;100632.22;;;3.71;96.24
7668;BME280;3876;42.204;24.686;2023-01-25T12:45:30;100642.56;;;3.83;96.20
7668;BME280;3876;42.204;24.686;2023-01-25T12:48:01;100637.63;;;3.92;96.09
7668;BME280;3876;42.204;24.686;2023-01-25T12:50:40;100630.78;;;3.88;96.67
7668;BME280;3876;42.204;24.686;2023-01-25T12:53:14;100636.72;;;3.87;96.00
7668;BME280;3876;42.204;24.686;2023-01-25T12:55:45;100632.47;;;3.86;95.27
7668;BME280;3876;42.204;24.686;2023-01-25T12:58:18;100633.19;;;3.79;95.38
7668;BME280;3876;42.204;24.686;2023-01-25T13:00:53;100635.63;;;3.73;95.15
7668;BME280;3876;42.204;24.686;2023-01-25T13:03:29;100625.38;;;3.67;95.97
7668;BME280;3876;42.204;24.686;2023-01-25T13:06:06;100625.47;;;3.73;96.56
7668;BME280;3876;42.204;24.686;2023-01-25T13:08:45;100621.22;;;3.72;96.69
7668;BME280;3876;42.204;24.686;2023-01-25T13:11:20;100624.66;;;3.74;96.90
7668;BME280;3876;42.204;24.686;2023-01-25T13:13:48;100606.00;;;3.70;96.81
7668;BME280;3876;42.204;24.686;2023-01-25T13:16:35;100617.16;;;3.80;97.60
7668;BME280;3876;42.204;24.686;2023-01-25T13:19:17;100613.88;;;3.87;97.97